Check out our new BloomSky Weather System.

Active alerts


No alerts


Thunder radar  blitzortung!


Rain radar more information rain snow radar


Visit our other weather sites:

Template documentation
and downloads

And another site



Weather Underground History page Text

Daily Summary for September 25, 2017 Units:  English    Metric   Both
« Previous Day
Next Day »
Daily Weekly Monthly Yearly Custom
  High: Low: Average:
Temperature: 91.0 °F 72.7 °F 80.6 °F
Dew Point: 77.9 °F 72.0 °F 74.1 °F
Humidity: 99 % 56 % 82 %
Wind Speed: 9.0 mph 0.0 mph 1.8 mph
Wind Gust: 13.0 mph - -
Wind:- - SE
Pressure: 29.89 in 29.77 in -
Precipitation: 0.00 in    
Historical Graphs
 
 
Tabular Data for September 25, 2017
Time Temperature Dew Point Pressure Wind Wind Speed Wind Gust Humidity Rainfall Rate (Hourly)
00:01 74.8 °F 72.0 °F 29.86 in Calm   1.0 mph 91 % 0.00 in
00:06 74.8 °F 72.3 °F 29.86 in East 1.0 mph 2.0 mph 92 % 0.00 in
00:11 74.8 °F 72.3 °F 29.86 in Calm   2.0 mph 92 % 0.00 in
00:16 74.8 °F 72.7 °F 29.86 in Calm   2.0 mph 93 % 0.00 in
00:21 74.8 °F 72.7 °F 29.86 in Calm   2.0 mph 93 % 0.00 in
00:26 74.8 °F 72.7 °F 29.86 in Calm   2.0 mph 93 % 0.00 in
00:31 74.7 °F 72.5 °F 29.86 in Calm   1.0 mph 93 % 0.00 in
00:36 74.7 °F 72.5 °F 29.86 in Calm   1.0 mph 93 % 0.00 in
00:41 74.5 °F 72.7 °F 29.86 in Calm   1.0 mph 94 % 0.00 in
00:47 74.3 °F 72.5 °F 29.86 in SE 1.0 mph 1.0 mph 94 % 0.00 in
00:52 74.3 °F 72.5 °F 29.86 in Calm   1.0 mph 94 % 0.00 in
00:57 74.1 °F 72.7 °F 29.86 in Calm   1.0 mph 95 % 0.00 in
01:02 74.1 °F 72.7 °F 29.86 in Calm   1.0 mph 95 % 0.00 in
01:07 74.1 °F 72.7 °F 29.86 in Calm   1.0 mph 95 % 0.00 in
01:12 74.1 °F 72.7 °F 29.86 in Calm   1.0 mph 95 % 0.00 in
01:17 74.1 °F 72.7 °F 29.86 in Calm   1.0 mph 95 % 0.00 in
01:22 74.1 °F 72.9 °F 29.86 in Calm   1.0 mph 96 % 0.00 in
01:27 73.9 °F 72.7 °F 29.86 in Calm     96 % 0.00 in
01:32 73.8 °F 72.5 °F 29.85 in Calm     96 % 0.00 in
01:37 73.8 °F 72.5 °F 29.85 in Calm   1.0 mph 96 % 0.00 in
01:42 73.8 °F 72.5 °F 29.85 in Calm   1.0 mph 96 % 0.00 in
01:47 73.6 °F 72.3 °F 29.85 in Calm   1.0 mph 96 % 0.00 in
01:52 73.6 °F 72.3 °F 29.86 in Calm   1.0 mph 96 % 0.00 in
01:57 73.4 °F 72.1 °F 29.86 in Calm   1.0 mph 96 % 0.00 in
02:02 73.4 °F 72.1 °F 29.85 in Calm   1.0 mph 96 % 0.00 in
02:07 73.4 °F 72.5 °F 29.85 in Calm   1.0 mph 97 % 0.00 in
02:12 73.4 °F 72.5 °F 29.85 in Calm   1.0 mph 97 % 0.00 in
02:17 73.2 °F 72.3 °F 29.85 in Calm   1.0 mph 97 % 0.00 in
02:22 73.2 °F 72.3 °F 29.85 in Calm   1.0 mph 97 % 0.00 in
02:27 73.2 °F 72.3 °F 29.85 in Calm   1.0 mph 97 % 0.00 in
02:32 73.4 °F 72.5 °F 29.85 in Calm   1.0 mph 97 % 0.00 in
02:37 73.2 °F 72.3 °F 29.85 in Calm   1.0 mph 97 % 0.00 in
02:42 73.2 °F 72.3 °F 29.85 in Calm   1.0 mph 97 % 0.00 in
02:47 73.0 °F 72.1 °F 29.85 in Calm   1.0 mph 97 % 0.00 in
02:52 73.0 °F 72.5 °F 29.85 in Calm   1.0 mph 98 % 0.00 in
02:57 73.0 °F 72.5 °F 29.85 in Calm     98 % 0.00 in
03:02 73.0 °F 72.5 °F 29.85 in Calm     98 % 0.00 in
03:07 73.0 °F 72.5 °F 29.85 in Calm   1.0 mph 98 % 0.00 in
03:12 72.9 °F 72.3 °F 29.85 in Calm   1.0 mph 98 % 0.00 in
03:17 72.9 °F 72.3 °F 29.84 in Calm   1.0 mph 98 % 0.00 in
03:22 72.9 °F 72.3 °F 29.85 in Calm     98 % 0.00 in
03:27 72.7 °F 72.1 °F 29.85 in Calm     98 % 0.00 in
03:32 72.7 °F 72.1 °F 29.84 in Calm     98 % 0.00 in
03:37 72.9 °F 72.3 °F 29.84 in Calm     98 % 0.00 in
03:42 72.7 °F 72.1 °F 29.84 in Calm     98 % 0.00 in
03:47 72.9 °F 72.3 °F 29.84 in Calm     98 % 0.00 in
03:52 72.9 °F 72.3 °F 29.84 in Calm     98 % 0.00 in
03:57 72.9 °F 72.3 °F 29.84 in Calm   1.0 mph 98 % 0.00 in
04:02 72.9 °F 72.3 °F 29.84 in Calm   1.0 mph 98 % 0.00 in
04:07 72.9 °F 72.3 °F 29.84 in Calm   1.0 mph 98 % 0.00 in
04:12 72.9 °F 72.5 °F 29.84 in Calm   1.0 mph 99 % 0.00 in
04:17 72.9 °F 72.5 °F 29.84 in Calm   1.0 mph 99 % 0.00 in
04:22 72.7 °F 72.1 °F 29.84 in Calm   1.0 mph 98 % 0.00 in
04:27 72.9 °F 72.5 °F 29.84 in Calm     99 % 0.00 in
04:32 72.9 °F 72.5 °F 29.84 in Calm     99 % 0.00 in
04:37 72.7 °F 72.3 °F 29.84 in Calm     99 % 0.00 in
04:42 72.7 °F 72.3 °F 29.84 in Calm     99 % 0.00 in
04:47 72.7 °F 72.3 °F 29.84 in Calm     99 % 0.00 in
04:52 72.7 °F 72.3 °F 29.84 in Calm     99 % 0.00 in
04:57 72.7 °F 72.3 °F 29.84 in Calm     99 % 0.00 in
05:02 72.7 °F 72.3 °F 29.84 in Calm     99 % 0.00 in
05:07 72.7 °F 72.3 °F 29.84 in Calm   1.0 mph 99 % 0.00 in
05:12 72.7 °F 72.3 °F 29.84 in Calm   1.0 mph 99 % 0.00 in
05:17 72.9 °F 72.5 °F 29.84 in Calm   1.0 mph 99 % 0.00 in
05:22 72.7 °F 72.3 °F 29.84 in Calm   1.0 mph 99 % 0.00 in
05:27 72.9 °F 72.5 °F 29.84 in Calm     99 % 0.00 in
05:32 72.9 °F 72.5 °F 29.84 in Calm   1.0 mph 99 % 0.00 in
05:37 72.9 °F 72.5 °F 29.84 in Calm   1.0 mph 99 % 0.00 in
05:42 72.9 °F 72.5 °F 29.84 in Calm   1.0 mph 99 % 0.00 in
05:47 72.9 °F 72.5 °F 29.85 in Calm   1.0 mph 99 % 0.00 in
05:52 72.9 °F 72.5 °F 29.85 in Calm   1.0 mph 99 % 0.00 in
05:57 73.0 °F 72.7 °F 29.85 in Calm   2.0 mph 99 % 0.00 in
06:02 72.9 °F 72.5 °F 29.85 in Calm   2.0 mph 99 % 0.00 in
06:07 72.9 °F 72.5 °F 29.86 in Calm   2.0 mph 99 % 0.00 in
06:12 72.9 °F 72.5 °F 29.86 in Calm   1.0 mph 99 % 0.00 in
06:17 72.9 °F 72.5 °F 29.86 in Calm   1.0 mph 99 % 0.00 in
06:22 72.9 °F 72.5 °F 29.86 in Calm   1.0 mph 99 % 0.00 in
06:27 72.9 °F 72.5 °F 29.86 in Calm   1.0 mph 99 % 0.00 in
06:32 72.7 °F 72.3 °F 29.86 in Calm   1.0 mph 99 % 0.00 in
06:37 72.7 °F 72.3 °F 29.86 in Calm   1.0 mph 99 % 0.00 in
06:42 72.7 °F 72.3 °F 29.86 in Calm   1.0 mph 99 % 0.00 in
06:47 72.7 °F 72.3 °F 29.86 in Calm   1.0 mph 99 % 0.00 in
06:52 72.7 °F 72.3 °F 29.87 in Calm   1.0 mph 99 % 0.00 in
06:57 72.7 °F 72.3 °F 29.87 in Calm   1.0 mph 99 % 0.00 in
07:02 72.7 °F 72.3 °F 29.87 in Calm   1.0 mph 99 % 0.00 in
07:07 72.7 °F 72.3 °F 29.86 in Calm   1.0 mph 99 % 0.00 in
07:12 72.9 °F 72.5 °F 29.87 in Calm   1.0 mph 99 % 0.00 in
07:17 72.7 °F 72.3 °F 29.87 in Calm   1.0 mph 99 % 0.00 in
07:22 72.9 °F 72.5 °F 29.87 in Calm   1.0 mph 99 % 0.00 in
07:27 72.9 °F 72.5 °F 29.87 in Calm   1.0 mph 99 % 0.00 in
07:32 72.9 °F 72.5 °F 29.87 in Calm   1.0 mph 99 % 0.00 in
07:37 72.9 °F 72.5 °F 29.87 in Calm   1.0 mph 99 % 0.00 in
07:42 73.0 °F 72.7 °F 29.87 in NNW 1.0 mph 1.0 mph 99 % 0.00 in
07:47 73.0 °F 72.7 °F 29.87 in Calm   1.0 mph 99 % 0.00 in
07:52 73.4 °F 73.0 °F 29.87 in Calm   2.0 mph 99 % 0.00 in
07:57 73.8 °F 73.4 °F 29.87 in Calm   2.0 mph 99 % 0.00 in
08:02 74.1 °F 73.8 °F 29.88 in Calm   3.0 mph 99 % 0.00 in
08:07 74.5 °F 74.1 °F 29.88 in ENE 1.0 mph 3.0 mph 99 % 0.00 in
08:12 74.8 °F 74.3 °F 29.88 in Calm   3.0 mph 98 % 0.00 in
08:17 75.4 °F 74.8 °F 29.88 in NW 1.0 mph 2.0 mph 98 % 0.00 in
08:22 75.6 °F 74.7 °F 29.88 in NNW 1.0 mph 4.0 mph 97 % 0.00 in
08:26 76.3 °F 75.4 °F 29.88 in East 2.0 mph 4.0 mph 97 % 0.00 in
08:31 76.5 °F 75.2 °F 29.88 in Calm   4.0 mph 96 % 0.00 in
08:36 77.2 °F 75.6 °F 29.88 in ENE 1.0 mph 4.0 mph 95 % 0.00 in
08:41 77.5 °F 75.4 °F 29.88 in Calm   3.0 mph 93 % 0.00 in
08:46 78.1 °F 75.6 °F 29.89 in Calm   3.0 mph 92 % 0.00 in
08:51 78.4 °F 75.6 °F 29.89 in North 1.0 mph 3.0 mph 91 % 0.00 in
08:56 79.0 °F 75.7 °F 29.88 in Calm   3.0 mph 90 % 0.00 in
09:02 79.5 °F 75.9 °F 29.88 in Calm   3.0 mph 89 % 0.00 in
09:06 79.9 °F 76.3 °F 29.88 in Calm   3.0 mph 89 % 0.00 in
09:11 80.1 °F 76.1 °F 29.88 in Calm   3.0 mph 88 % 0.00 in
09:16 80.2 °F 76.1 °F 29.88 in ESE 2.0 mph 4.0 mph 87 % 0.00 in
09:22 80.2 °F 76.1 °F 29.88 in East 1.0 mph 5.0 mph 87 % 0.00 in
09:27 80.8 °F 76.5 °F 29.89 in North 1.0 mph 5.0 mph 87 % 0.00 in
09:32 81.1 °F 76.5 °F 29.89 in ENE 4.0 mph 5.0 mph 86 % 0.00 in
09:37 81.5 °F 77.2 °F 29.89 in NNW 1.0 mph 5.0 mph 87 % 0.00 in
09:42 81.9 °F 76.5 °F 29.89 in SSE 1.0 mph 5.0 mph 84 % 0.00 in
09:46 82.4 °F 77.4 °F 29.89 in Calm   5.0 mph 85 % 0.00 in
09:51 82.8 °F 77.4 °F 29.89 in NNW 2.0 mph 6.0 mph 84 % 0.00 in
09:56 82.9 °F 77.2 °F 29.89 in NNW 1.0 mph 6.0 mph 83 % 0.00 in
10:01 83.3 °F 77.5 °F 29.89 in Calm   6.0 mph 83 % 0.00 in
10:02 83.5 °F 77.7 °F 29.89 in ENE 3.0 mph 6.0 mph 83 % 0.00 in
10:07 83.7 °F 77.5 °F 29.89 in East 4.0 mph 5.0 mph 82 % 0.00 in
10:08 83.7 °F 77.5 °F 29.89 in SSE 4.0 mph 5.0 mph 82 % 0.00 in
10:13 83.7 °F 77.2 °F 29.89 in ESE 2.0 mph 6.0 mph 81 % 0.00 in
10:18 84.0 °F 77.5 °F 29.89 in ENE 4.0 mph 6.0 mph 81 % 0.00 in
10:23 84.6 °F 77.7 °F 29.89 in NE 2.0 mph 6.0 mph 80 % 0.00 in
10:28 84.6 °F 77.4 °F 29.89 in NNE 3.0 mph 6.0 mph 79 % 0.00 in
10:33 84.7 °F 77.9 °F 29.89 in SE 2.0 mph 11.0 mph 80 % 0.00 in
10:38 84.7 °F 77.2 °F 29.89 in ENE 1.0 mph 11.0 mph 78 % 0.00 in
10:43 84.9 °F 77.7 °F 29.89 in East 4.0 mph 11.0 mph 79 % 0.00 in
10:48 85.3 °F 76.8 °F 29.89 in East 3.0 mph 8.0 mph 76 % 0.00 in
10:53 85.3 °F 76.8 °F 29.89 in SSE 5.0 mph 8.0 mph 76 % 0.00 in
10:58 85.3 °F 76.8 °F 29.89 in SE 3.0 mph 8.0 mph 76 % 0.00 in
11:03 85.5 °F 77.7 °F 29.89 in ESE 1.0 mph 7.0 mph 78 % 0.00 in
11:04 85.5 °F 77.4 °F 29.89 in SE 3.0 mph 7.0 mph 77 % 0.00 in
11:09 86.0 °F 76.3 °F 29.89 in ESE 3.0 mph 7.0 mph 73 % 0.00 in
11:14 86.0 °F 75.9 °F 29.88 in ESE 8.0 mph 8.0 mph 72 % 0.00 in
11:19 86.2 °F 76.1 °F 29.88 in SSE 3.0 mph 8.0 mph 72 % 0.00 in
11:21 86.2 °F 76.1 °F 29.88 in ESE 2.0 mph 9.0 mph 72 % 0.00 in
11:26 86.7 °F 77.0 °F 29.88 in SE 2.0 mph 9.0 mph 73 % 0.00 in
11:30 87.1 °F 76.1 °F 29.88 in East 4.0 mph 9.0 mph 70 % 0.00 in
11:35 86.5 °F 75.6 °F 29.88 in Calm   7.0 mph 70 % 0.00 in
11:40 86.2 °F 75.2 °F 29.88 in SE 5.0 mph 7.0 mph 70 % 0.00 in
11:45 86.4 °F 75.9 °F 29.87 in ESE 1.0 mph 7.0 mph 71 % 0.00 in
11:50 87.3 °F 76.6 °F 29.87 in Calm   7.0 mph 71 % 0.00 in
12:00 86.7 °F 75.4 °F 29.87 in NNW 8.0 mph 8.0 mph 69 % 0.00 in
12:05 86.5 °F 75.6 °F 29.87 in ENE 2.0 mph 8.0 mph 70 % 0.00 in
12:10 87.1 °F 75.7 °F 29.87 in SE 5.0 mph 11.0 mph 69 % 0.00 in
12:15 87.1 °F 75.2 °F 29.87 in NW 2.0 mph 11.0 mph 68 % 0.00 in
12:20 86.7 °F 75.7 °F 29.87 in ENE 3.0 mph 11.0 mph 70 % 0.00 in
12:25 86.5 °F 75.2 °F 29.87 in ESE 5.0 mph 7.0 mph 69 % 0.00 in
12:35 86.7 °F 74.8 °F 29.86 in East 3.0 mph 8.0 mph 68 % 0.00 in
12:40 87.3 °F 74.5 °F 29.86 in ESE 3.0 mph 10.0 mph 66 % 0.00 in
12:45 88.2 °F 75.4 °F 29.86 in SSE 4.0 mph 10.0 mph 66 % 0.00 in
12:50 88.5 °F 75.2 °F 29.86 in SE 5.0 mph 10.0 mph 65 % 0.00 in
12:55 88.5 °F 75.7 °F 29.85 in ESE 4.0 mph 9.0 mph 66 % 0.00 in
13:00 89.2 °F 76.5 °F 29.85 in WNW 2.0 mph 10.0 mph 66 % 0.00 in
13:02 89.2 °F 75.9 °F 29.85 in ESE 6.0 mph 10.0 mph 65 % 0.00 in
13:07 88.5 °F 75.7 °F 29.85 in East 2.0 mph 10.0 mph 66 % 0.00 in
13:12 88.2 °F 75.7 °F 29.84 in SE 1.0 mph 10.0 mph 67 % 0.00 in
13:17 88.5 °F 75.7 °F 29.84 in East 6.0 mph 11.0 mph 66 % 0.00 in
13:22 88.2 °F 75.7 °F 29.84 in ESE 1.0 mph 11.0 mph 67 % 0.00 in
13:27 88.7 °F 75.0 °F 29.83 in ENE 5.0 mph 11.0 mph 64 % 0.00 in
13:33 88.9 °F 75.6 °F 29.83 in SSE 3.0 mph 9.0 mph 65 % 0.00 in
13:38 88.2 °F 74.5 °F 29.83 in East 4.0 mph 9.0 mph 64 % 0.00 in
13:43 88.3 °F 74.7 °F 29.83 in SSW 2.0 mph 9.0 mph 64 % 0.00 in
13:48 89.2 °F 74.5 °F 29.83 in East 1.0 mph 9.0 mph 62 % 0.00 in
13:53 90.0 °F 74.7 °F 29.82 in SSE 3.0 mph 9.0 mph 61 % 0.00 in
13:58 90.0 °F 74.1 °F 29.82 in East 3.0 mph 8.0 mph 60 % 0.00 in
14:03 89.8 °F 74.5 °F 29.82 in East 2.0 mph 8.0 mph 61 % 0.00 in
14:08 89.4 °F 73.8 °F 29.82 in ENE 9.0 mph 10.0 mph 60 % 0.00 in
14:13 89.4 °F 75.6 °F 29.81 in ESE 5.0 mph 10.0 mph 64 % 0.00 in
14:18 90.0 °F 74.7 °F 29.81 in SE 1.0 mph 13.0 mph 61 % 0.00 in
14:23 90.7 °F 74.3 °F 29.81 in ESE 7.0 mph 13.0 mph 59 % 0.00 in
14:28 90.3 °F 74.1 °F 29.81 in SSE 5.0 mph 13.0 mph 59 % 0.00 in
14:33 90.5 °F 74.7 °F 29.81 in East 3.0 mph 13.0 mph 60 % 0.00 in
14:38 90.1 °F 72.3 °F 29.81 in SSE 3.0 mph 13.0 mph 56 % 0.00 in
14:43 90.1 °F 73.4 °F 29.80 in ESE 5.0 mph 10.0 mph 58 % 0.00 in
14:48 90.9 °F 74.1 °F 29.80 in SSE 3.0 mph 10.0 mph 58 % 0.00 in
14:53 91.0 °F 74.1 °F 29.80 in ESE 5.0 mph 10.0 mph 58 % 0.00 in
14:58 91.0 °F 73.2 °F 29.80 in NE 3.0 mph 13.0 mph 56 % 0.00 in
15:03 90.9 °F 74.1 °F 29.80 in North 1.0 mph 13.0 mph 58 % 0.00 in
15:08 90.7 °F 73.9 °F 29.80 in East 3.0 mph 13.0 mph 58 % 0.00 in
15:13 90.7 °F 73.9 °F 29.79 in SSE 3.0 mph 9.0 mph 58 % 0.00 in
15:18 90.7 °F 75.4 °F 29.79 in NE 9.0 mph 10.0 mph 61 % 0.00 in
15:23 90.3 °F 74.1 °F 29.79 in NE 1.0 mph 10.0 mph 59 % 0.00 in
15:28 90.1 °F 73.4 °F 29.79 in ENE 7.0 mph 10.0 mph 58 % 0.00 in
15:33 90.0 °F 74.1 °F 29.79 in NE 4.0 mph 10.0 mph 60 % 0.00 in
15:38 90.1 °F 74.3 °F 29.79 in ESE 2.0 mph 13.0 mph 60 % 0.00 in
15:48 88.9 °F 74.1 °F 29.79 in SE 1.0 mph 13.0 mph 62 % 0.00 in
15:53 88.3 °F 73.2 °F 29.78 in East 2.0 mph 12.0 mph 61 % 0.00 in
15:58 88.9 °F 74.7 °F 29.78 in NE 4.0 mph 12.0 mph 63 % 0.00 in
16:03 89.4 °F 74.7 °F 29.78 in East 2.0 mph 12.0 mph 62 % 0.00 in
16:08 90.0 °F 74.7 °F 29.78 in NE 5.0 mph 10.0 mph 61 % 0.00 in
16:13 90.0 °F 74.7 °F 29.78 in ESE 7.0 mph 10.0 mph 61 % 0.00 in
16:18 90.0 °F 75.2 °F 29.78 in SE 8.0 mph 9.0 mph 62 % 0.00 in
16:23 89.8 °F 74.5 °F 29.77 in NNE 4.0 mph 9.0 mph 61 % 0.00 in
16:28 88.9 °F 73.8 °F 29.77 in East 2.0 mph 9.0 mph 61 % 0.00 in
16:34 88.3 °F 73.6 °F 29.77 in NE 6.0 mph 11.0 mph 62 % 0.00 in
16:39 88.5 °F 73.4 °F 29.77 in East 2.0 mph 11.0 mph 61 % 0.00 in
16:43 88.7 °F 73.6 °F 29.77 in ENE 2.0 mph 11.0 mph 61 % 0.00 in
16:49 88.9 °F 73.8 °F 29.78 in Calm   10.0 mph 61 % 0.00 in
16:54 88.7 °F 72.5 °F 29.78 in ESE 2.0 mph 10.0 mph 59 % 0.00 in
16:59 88.2 °F 72.5 °F 29.78 in ESE 2.0 mph 10.0 mph 60 % 0.00 in
17:04 88.0 °F 72.9 °F 29.78 in ESE 2.0 mph 10.0 mph 61 % 0.00 in
17:09 87.6 °F 72.5 °F 29.78 in SE 2.0 mph 7.0 mph 61 % 0.00 in
17:14 87.6 °F 73.0 °F 29.78 in ENE 6.0 mph 7.0 mph 62 % 0.00 in
17:19 87.4 °F 73.8 °F 29.78 in SE 1.0 mph 8.0 mph 64 % 0.00 in
17:24 87.3 °F 73.0 °F 29.78 in East 5.0 mph 8.0 mph 63 % 0.00 in
17:29 87.1 °F 73.4 °F 29.78 in Calm   8.0 mph 64 % 0.00 in
17:34 86.9 °F 73.8 °F 29.78 in East 4.0 mph 9.0 mph 65 % 0.00 in
17:39 86.7 °F 73.0 °F 29.78 in ESE 4.0 mph 9.0 mph 64 % 0.00 in
17:44 86.7 °F 73.0 °F 29.78 in SE 7.0 mph 10.0 mph 64 % 0.00 in
17:49 86.7 °F 73.6 °F 29.78 in SSE 6.0 mph 10.0 mph 65 % 0.00 in
17:54 86.7 °F 73.6 °F 29.78 in SE 3.0 mph 11.0 mph 65 % 0.00 in
17:59 86.5 °F 73.4 °F 29.78 in South 6.0 mph 11.0 mph 65 % 0.00 in
18:04 86.5 °F 73.8 °F 29.79 in SE 2.0 mph 11.0 mph 66 % 0.00 in
18:09 86.4 °F 73.6 °F 29.79 in SE 2.0 mph 11.0 mph 66 % 0.00 in
18:14 86.2 °F 73.4 °F 29.79 in ENE 6.0 mph 11.0 mph 66 % 0.00 in
18:19 86.2 °F 73.9 °F 29.79 in SE 8.0 mph 8.0 mph 67 % 0.00 in
18:24 85.8 °F 73.9 °F 29.79 in ESE 4.0 mph 10.0 mph 68 % 0.00 in
18:29 85.6 °F 73.9 °F 29.79 in South 5.0 mph 10.0 mph 68 % 0.00 in
18:34 85.5 °F 74.1 °F 29.79 in East 7.0 mph 11.0 mph 69 % 0.00 in
18:39 85.1 °F 74.7 °F 29.79 in ESE 6.0 mph 11.0 mph 71 % 0.00 in
18:44 84.7 °F 74.7 °F 29.79 in SE 9.0 mph 11.0 mph 72 % 0.00 in
18:49 84.6 °F 74.5 °F 29.79 in SSE 6.0 mph 11.0 mph 72 % 0.00 in
18:54 84.4 °F 74.8 °F 29.79 in SE 4.0 mph 11.0 mph 73 % 0.00 in
18:59 84.2 °F 74.7 °F 29.79 in ESE 3.0 mph 11.0 mph 73 % 0.00 in
19:04 84.0 °F 74.5 °F 29.79 in ESE 2.0 mph 10.0 mph 73 % 0.00 in
19:09 83.8 °F 74.3 °F 29.79 in ESE 4.0 mph 10.0 mph 73 % 0.00 in
19:14 83.7 °F 74.5 °F 29.79 in SE 1.0 mph 10.0 mph 74 % 0.00 in
19:19 83.7 °F 74.5 °F 29.80 in SSE 4.0 mph 8.0 mph 74 % 0.00 in
19:24 83.5 °F 74.3 °F 29.80 in ESE 4.0 mph 9.0 mph 74 % 0.00 in
19:29 83.5 °F 74.7 °F 29.80 in SSE 4.0 mph 9.0 mph 75 % 0.00 in
19:34 83.3 °F 74.5 °F 29.80 in ESE 5.0 mph 10.0 mph 75 % 0.00 in
19:39 83.1 °F 74.3 °F 29.80 in SE 1.0 mph 10.0 mph 75 % 0.00 in
19:44 83.1 °F 74.3 °F 29.81 in ESE 3.0 mph 10.0 mph 75 % 0.00 in
19:49 82.9 °F 74.7 °F 29.81 in ESE 2.0 mph 8.0 mph 76 % 0.00 in
19:59 82.8 °F 74.5 °F 29.81 in East 5.0 mph 7.0 mph 76 % 0.00 in
20:04 82.6 °F 74.7 °F 29.81 in ESE 4.0 mph 9.0 mph 77 % 0.00 in
20:09 82.4 °F 74.5 °F 29.81 in East 3.0 mph 9.0 mph 77 % 0.00 in
20:14 82.2 °F 74.7 °F 29.81 in ESE 1.0 mph 9.0 mph 78 % 0.00 in
20:19 82.2 °F 74.7 °F 29.81 in East 3.0 mph 9.0 mph 78 % 0.00 in
20:24 82.0 °F 74.5 °F 29.81 in ESE 5.0 mph 9.0 mph 78 % 0.00 in
20:29 81.9 °F 74.7 °F 29.82 in ESE 3.0 mph 7.0 mph 79 % 0.00 in
20:35 81.7 °F 74.5 °F 29.82 in SSE 1.0 mph 6.0 mph 79 % 0.00 in
20:40 81.7 °F 74.8 °F 29.82 in ESE 4.0 mph 6.0 mph 80 % 0.00 in
20:45 81.5 °F 74.7 °F 29.82 in ESE 2.0 mph 6.0 mph 80 % 0.00 in
20:50 81.3 °F 74.8 °F 29.82 in ESE 2.0 mph 6.0 mph 81 % 0.00 in
20:55 81.1 °F 74.7 °F 29.82 in ESE 2.0 mph 6.0 mph 81 % 0.00 in
21:00 81.1 °F 74.7 °F 29.82 in ESE 2.0 mph 6.0 mph 81 % 0.00 in
21:05 81.0 °F 74.7 °F 29.82 in SE 4.0 mph 6.0 mph 81 % 0.00 in
21:06 81.0 °F 74.7 °F 29.82 in East 5.0 mph 7.0 mph 81 % 0.00 in
21:11 80.8 °F 74.5 °F 29.82 in Calm   7.0 mph 81 % 0.00 in
21:16 80.8 °F 74.5 °F 29.83 in ESE 2.0 mph 7.0 mph 81 % 0.00 in
21:26 80.4 °F 74.5 °F 29.83 in ESE 1.0 mph 5.0 mph 82 % 0.00 in
21:31 80.2 °F 74.3 °F 29.83 in Calm   5.0 mph 82 % 0.00 in
21:36 80.1 °F 74.1 °F 29.83 in ESE 2.0 mph 5.0 mph 82 % 0.00 in
21:41 80.1 °F 74.1 °F 29.83 in SE 1.0 mph 5.0 mph 82 % 0.00 in
21:46 79.9 °F 74.3 °F 29.83 in SE 1.0 mph 3.0 mph 83 % 0.00 in
21:51 79.7 °F 74.5 °F 29.83 in East 1.0 mph 3.0 mph 84 % 0.00 in
21:56 79.5 °F 74.3 °F 29.83 in ENE 5.0 mph 5.0 mph 84 % 0.00 in
22:01 79.5 °F 74.3 °F 29.83 in SE 2.0 mph 5.0 mph 84 % 0.00 in
22:06 79.5 °F 74.3 °F 29.83 in SE 2.0 mph 5.0 mph 84 % 0.00 in
22:11 79.5 °F 74.7 °F 29.83 in East 2.0 mph 5.0 mph 85 % 0.00 in
22:17 79.3 °F 74.5 °F 29.83 in ESE 1.0 mph 4.0 mph 85 % 0.00 in
22:19 79.3 °F 74.5 °F 29.83 in Calm   4.0 mph 85 % 0.00 in
22:22 79.2 °F 74.3 °F 29.83 in SE 1.0 mph 4.0 mph 85 % 0.00 in
22:24 79.2 °F 74.3 °F 29.83 in ESE 2.0 mph 4.0 mph 85 % 0.00 in
22:27 79.2 °F 74.3 °F 29.83 in ESE 2.0 mph 3.0 mph 85 % 0.00 in
22:31 79.2 °F 74.7 °F 29.84 in Calm   3.0 mph 86 % 0.00 in
22:36 79.0 °F 74.5 °F 29.84 in ESE 2.0 mph 3.0 mph 86 % 0.00 in
22:41 78.8 °F 74.3 °F 29.84 in SE 1.0 mph 3.0 mph 86 % 0.00 in
22:46 78.6 °F 74.1 °F 29.84 in ESE 1.0 mph 3.0 mph 86 % 0.00 in
22:51 78.6 °F 74.5 °F 29.84 in East 1.0 mph 3.0 mph 87 % 0.00 in
22:56 78.6 °F 74.5 °F 29.84 in SSE 1.0 mph 3.0 mph 87 % 0.00 in
23:01 78.4 °F 74.3 °F 29.84 in SE 2.0 mph 3.0 mph 87 % 0.00 in
23:06 78.4 °F 74.3 °F 29.84 in East 2.0 mph 3.0 mph 87 % 0.00 in
23:16 78.3 °F 74.5 °F 29.85 in Calm   3.0 mph 88 % 0.00 in
23:21 78.1 °F 74.3 °F 29.85 in Calm   2.0 mph 88 % 0.00 in
23:26 77.9 °F 74.1 °F 29.85 in Calm   1.0 mph 88 % 0.00 in
23:31 77.7 °F 74.3 °F 29.85 in Calm   1.0 mph 89 % 0.00 in
23:36 77.5 °F 74.1 °F 29.85 in Calm   1.0 mph 89 % 0.00 in
23:41 77.2 °F 73.9 °F 29.85 in Calm   1.0 mph 90 % 0.00 in
23:46 77.0 °F 73.8 °F 29.85 in Calm   1.0 mph 90 % 0.00 in
23:47 76.8 °F 73.6 °F 29.85 in Calm   1.0 mph 90 % 0.00 in
23:52 76.6 °F 73.8 °F 29.85 in Calm   1.0 mph 91 % 0.00 in
23:57 76.5 °F 73.6 °F 29.85 in Calm   1.0 mph 91 % 0.00 in
Spring, Texas: Villages of Bridgestone
Compliments of Weather Underground - 2.75 mb

Script developed by  Jim McMurry - jmcmurry@mwt.net Adapted for the template by  Wim van der Kuil - Leuven-Template.eu

You find our weather info also at:

UK Metoffice

WeatherCloud

Weather Underground

Mid-South Weather Network

AWEKAS

Citizen Weather Observer Program (CWOP)

HAMweather, WeatherForYou, PWS Weather

Equipment we use:

Weather-station
Davis Vantage Vue

Weather-program
Meteohub

Weather-server
Debian 7.9 x86 (Guest)

Provider
DreamHost

Davis Vantage Vue

Meteohub

Debian 7.9 x86 (Guest)

DreamHost